Time;durP1;ratioP1;P1;durP2;ratioP2;P2;SDS_P1;SDS_P2;PMS_P1;PMS_P2;Temp;Humidity;BMP_temperature;BMP_pressure;BME280_temperature;BME280_humidity;BME280_pressure;Samples;Min_cycle;Max_cycle;Signal;HPM_P1;HPM_P2
2023/05/25 00:01:58;;;;;;;;;;;18.60;65.10;;;;;;5039620;28;1276;-72
2023/05/25 00:04:25;;;;;;;;;;;18.60;65.10;;;;;;5039808;28;848;-72
2023/05/25 00:06:51;;;;;;;;;;;18.60;65.10;;;;;;5038706;28;1909;-72
2023/05/25 00:09:17;;;;;;;;;;;18.60;65.10;;;;;;5024256;28;849;-73
2023/05/25 00:11:43;;;;;;;;;;;18.60;65.10;;;;;;5023232;28;1295;-72
2023/05/25 00:14:08;;;;;;;;;;;18.60;65.10;;;;;;5038148;28;1213;-72
2023/05/25 00:16:36;;;;;;;;;;;18.60;65.10;;;;;;5039561;28;816;-72
2023/05/25 00:19:03;;;;;;;;;;;18.60;65.10;;;;;;5041719;28;846;-72
2023/05/25 00:21:28;;;;;;;;;;;18.60;65.10;;;;;;5037748;28;1372;-73
2023/05/25 00:23:54;;;;;;;;;;;18.60;65.10;;;;;;5036716;28;1002;-72
2023/05/25 00:26:20;;;;;;;;;;;18.60;65.10;;;;;;5020066;28;1299;-72
2023/05/25 00:28:45;;;;;;;;;;;18.60;65.10;;;;;;5036970;28;1898;-72
2023/05/25 00:31:11;;;;;;;;;;;18.60;65.10;;;;;;5037098;28;1360;-72
2023/05/25 00:33:36;;;;;;;;;;;18.60;65.10;;;;;;5037413;28;1418;-73
2023/05/25 00:36:02;;;;;;;;;;;18.60;65.20;;;;;;5037671;28;831;-73
2023/05/25 00:38:27;;;;;;;;;;;18.60;65.20;;;;;;5026995;28;1186;-72
2023/05/25 00:40:53;;;;;;;;;;;18.60;65.20;;;;;;5035995;28;904;-73
2023/05/25 00:43:19;;;;;;;;;;;18.60;65.20;;;;;;5007654;28;1410;-73
2023/05/25 00:45:44;;;;;;;;;;;18.60;65.20;;;;;;5029558;28;811;-72
2023/05/25 00:48:10;;;;;;;;;;;18.60;65.20;;;;;;5025707;28;1973;-73
2023/05/25 00:50:37;;;;;;;;;;;18.60;65.20;;;;;;5022393;28;1082;-72
2023/05/25 00:53:02;;;;;;;;;;;18.60;65.20;;;;;;5037201;28;1351;-72
2023/05/25 00:55:28;;;;;;;;;;;18.60;65.20;;;;;;5038453;28;884;-72
2023/05/25 00:57:54;;;;;;;;;;;18.60;65.20;;;;;;5036198;28;1545;-73
2023/05/25 01:00:20;;;;;;;;;;;18.60;65.20;;;;;;5038142;28;794;-72
2023/05/25 01:02:45;;;;;;;;;;;18.60;65.20;;;;;;5030728;28;1250;-72
2023/05/25 01:05:11;;;;;;;;;;;18.60;65.20;;;;;;5022488;28;896;-72
2023/05/25 01:07:36;;;;;;;;;;;18.60;65.20;;;;;;5038739;28;1966;-72
2023/05/25 01:10:05;;;;;;;;;;;18.60;65.20;;;;;;5022622;28;1296;-72
2023/05/25 01:12:32;;;;;;;;;;;18.60;65.20;;;;;;5037077;28;1286;-72
2023/05/25 01:14:58;;;;;;;;;;;18.60;65.20;;;;;;5020425;28;868;-72
2023/05/25 01:17:24;;;;;;;;;;;18.60;65.60;;;;;;5022324;28;937;-73
2023/05/25 01:19:51;;;;;;;;;;;18.60;65.20;;;;;;5023398;28;824;-72
2023/05/25 01:22:23;;;;;;;;;;;18.60;65.30;;;;;;5036856;28;1266;-72
2023/05/25 01:24:50;;;;;;;;;;;18.60;65.30;;;;;;5039084;28;991;-73
2023/05/25 01:27:20;;;;;;;;;;;18.60;65.30;;;;;;5037863;28;1958;-72
2023/05/25 01:29:45;;;;;;;;;;;18.60;65.30;;;;;;5024263;28;1747;-72
2023/05/25 01:32:11;;;;;;;;;;;18.60;65.30;;;;;;5028600;28;1283;-73
2023/05/25 01:34:37;;;;;;;;;;;18.60;65.30;;;;;;5023214;28;1511;-73
2023/05/25 01:37:02;;;;;;;;;;;18.60;65.30;;;;;;5023063;28;879;-73
2023/05/25 01:39:28;;;;;;;;;;;18.60;65.30;;;;;;5024335;28;1196;-73
2023/05/25 01:41:53;;;;;;;;;;;18.60;65.30;;;;;;5042486;28;1319;-73
2023/05/25 01:44:19;;;;;;;;;;;18.60;65.30;;;;;;5045432;28;1006;-73
2023/05/25 01:46:45;;;;;;;;;;;18.60;65.30;;;;;;5034537;28;964;-73
2023/05/25 01:49:14;;;;;;;;;;;18.60;65.30;;;;;;5029377;28;1906;-73
2023/05/25 01:51:43;;;;;;;;;;;18.60;65.30;;;;;;5045136;28;1211;-73
2023/05/25 01:54:32;;;;;;;;;;;18.60;65.40;;;;;;5024506;28;879;-73
2023/05/25 01:56:58;;;;;;;;;;;18.60;65.30;;;;;;5037161;28;1127;-74
2023/05/25 01:59:23;;;;;;;;;;;18.60;65.40;;;;;;5014724;28;1624;-73
2023/05/25 02:01:48;;;;;;;;;;;18.60;65.30;;;;;;5027964;28;1151;-73
2023/05/25 02:04:15;;;;;;;;;;;18.60;65.40;;;;;;5026622;28;935;-77
2023/05/25 02:06:41;;;;;;;;;;;18.60;65.40;;;;;;5025268;28;1392;-78
2023/05/25 02:09:06;;;;;;;;;;;18.60;65.40;;;;;;5029534;28;1902;-73
2023/05/25 02:11:32;;;;;;;;;;;18.60;65.40;;;;;;5030539;28;1377;-73
2023/05/25 02:13:57;;;;;;;;;;;18.60;65.40;;;;;;5042972;28;1327;-73
2023/05/25 02:16:23;;;;;;;;;;;18.60;65.40;;;;;;5023922;28;1527;-74
2023/05/25 02:18:49;;;;;;;;;;;18.60;65.40;;;;;;5037565;28;1451;-75
2023/05/25 02:21:15;;;;;;;;;;;18.60;65.40;;;;;;5027752;28;1322;-75
2023/05/25 02:23:40;;;;;;;;;;;18.60;65.40;;;;;;5026309;28;1366;-73
2023/05/25 02:26:06;;;;;;;;;;;18.60;65.40;;;;;;5025044;28;1421;-74
2023/05/25 02:28:31;;;;;;;;;;;18.60;65.40;;;;;;5025501;28;1894;-73
2023/05/25 02:30:57;;;;;;;;;;;18.60;65.40;;;;;;5041587;28;1383;-72
2023/05/25 02:33:22;;;;;;;;;;;18.60;65.40;;;;;;5025441;28;1362;-72
2023/05/25 02:35:48;;;;;;;;;;;18.60;65.40;;;;;;5042810;28;844;-71
2023/05/25 02:38:13;;;;;;;;;;;18.60;65.40;;;;;;5037602;28;914;-71
2023/05/25 02:40:39;;;;;;;;;;;18.60;65.40;;;;;;5030351;28;1307;-73
2023/05/25 02:43:04;;;;;;;;;;;18.60;65.50;;;;;;5039510;28;1341;-73
2023/05/25 02:45:30;;;;;;;;;;;18.60;65.50;;;;;;5037979;28;943;-73
2023/05/25 02:47:55;;;;;;;;;;;18.60;66.20;;;;;;5039150;28;1906;-73
2023/05/25 02:50:21;;;;;;;;;;;18.60;65.40;;;;;;5040426;28;872;-73
2023/05/25 02:52:46;;;;;;;;;;;18.60;65.50;;;;;;5025022;28;1280;-73
2023/05/25 02:55:17;;;;;;;;;;;18.60;65.50;;;;;;5023180;28;1470;-73
2023/05/25 02:57:43;;;;;;;;;;;18.60;65.50;;;;;;5029207;28;1600;-73
2023/05/25 03:00:11;;;;;;;;;;;18.60;65.50;;;;;;5028769;28;1553;-72
2023/05/25 03:02:36;;;;;;;;;;;18.60;65.50;;;;;;5041187;28;1189;-73
2023/05/25 03:05:02;;;;;;;;;;;18.60;65.50;;;;;;5041139;28;1066;-73
2023/05/25 03:07:27;;;;;;;;;;;18.60;65.50;;;;;;5040634;28;1973;-75
2023/05/25 03:09:53;;;;;;;;;;;18.60;65.50;;;;;;5022368;28;836;-74
2023/05/25 03:12:18;;;;;;;;;;;18.60;65.50;;;;;;5025301;28;1222;-75
2023/05/25 03:14:44;;;;;;;;;;;18.60;65.50;;;;;;5037985;28;899;-75
2023/05/25 03:17:09;;;;;;;;;;;18.60;65.50;;;;;;5042627;28;796;-74
2023/05/25 03:19:35;;;;;;;;;;;18.60;65.50;;;;;;5040140;28;800;-74
2023/05/25 03:22:01;;;;;;;;;;;18.60;65.50;;;;;;5039246;28;1279;-72
2023/05/25 03:24:27;;;;;;;;;;;18.60;65.50;;;;;;5040268;28;1280;-72
2023/05/25 03:26:53;;;;;;;;;;;18.60;65.60;;;;;;5041564;28;865;-73
2023/05/25 03:29:18;;;;;;;;;;;18.60;65.50;;;;;;5039132;28;1967;-73
2023/05/25 03:31:44;;;;;;;;;;;18.60;65.60;;;;;;5040186;28;1283;-73
2023/05/25 03:34:09;;;;;;;;;;;18.50;65.50;;;;;;5042193;28;1369;-72
2023/05/25 03:36:36;;;;;;;;;;;18.60;65.60;;;;;;5038538;28;953;-72
2023/05/25 03:39:02;;;;;;;;;;;18.60;65.60;;;;;;5024506;28;1649;-73
2023/05/25 03:41:27;;;;;;;;;;;18.50;65.50;;;;;;5041897;28;1253;-73
2023/05/25 03:43:53;;;;;;;;;;;18.50;65.50;;;;;;5043308;28;1030;-72
2023/05/25 03:46:18;;;;;;;;;;;18.60;65.60;;;;;;5039304;28;832;-71
2023/05/25 03:48:44;;;;;;;;;;;18.50;65.50;;;;;;5039610;28;1967;-71
2023/05/25 03:51:09;;;;;;;;;;;18.50;65.50;;;;;;5037571;28;1201;-71
2023/05/25 03:53:35;;;;;;;;;;;18.50;65.50;;;;;;5026745;28;1422;-72
2023/05/25 03:56:00;;;;;;;;;;;18.50;65.50;;;;;;5039590;28;814;-75
2023/05/25 03:58:26;;;;;;;;;;;18.60;65.60;;;;;;5037613;28;911;-75
2023/05/25 04:00:51;;;;;;;;;;;18.50;65.50;;;;;;5021436;28;1157;-75
2023/05/25 04:03:17;;;;;;;;;;;18.50;65.50;;;;;;5007714;28;1289;-74
2023/05/25 04:05:44;;;;;;;;;;;18.60;65.60;;;;;;5025671;28;862;-74
2023/05/25 04:08:13;;;;;;;;;;;18.60;65.60;;;;;;5039836;28;1918;-74
2023/05/25 04:10:38;;;;;;;;;;;18.50;65.60;;;;;;5009828;28;1357;-74
2023/05/25 04:13:04;;;;;;;;;;;18.50;65.50;;;;;;5040791;28;1197;-73
2023/05/25 04:15:29;;;;;;;;;;;18.60;65.60;;;;;;5022812;28;940;-73
2023/05/25 04:17:55;;;;;;;;;;;18.50;65.60;;;;;;5039816;28;1105;-73
2023/05/25 04:20:20;;;;;;;;;;;18.50;65.60;;;;;;5039485;28;871;-73
2023/05/25 04:22:46;;;;;;;;;;;18.60;65.60;;;;;;5037903;28;1343;-73
2023/05/25 04:25:12;;;;;;;;;;;18.50;65.60;;;;;;5036603;28;896;-73
2023/05/25 04:27:37;;;;;;;;;;;18.60;65.70;;;;;;5036397;28;1902;-73
2023/05/25 04:30:03;;;;;;;;;;;18.50;65.60;;;;;;5040538;28;1342;-72
2023/05/25 04:32:28;;;;;;;;;;;18.50;65.60;;;;;;5024075;28;1284;-72
2023/05/25 04:34:57;;;;;;;;;;;18.50;65.60;;;;;;5024689;28;1504;-72
2023/05/25 04:37:26;;;;;;;;;;;18.50;65.60;;;;;;5023785;28;795;-72
2023/05/25 04:39:52;;;;;;;;;;;18.60;65.70;;;;;;5038654;28;840;-72
2023/05/25 04:42:18;;;;;;;;;;;18.50;65.60;;;;;;5024899;28;1330;-72
2023/05/25 04:44:43;;;;;;;;;;;18.50;65.60;;;;;;5039249;28;945;-72
2023/05/25 04:47:09;;;;;;;;;;;18.50;65.60;;;;;;5027759;28;1898;-72
2023/05/25 04:49:35;;;;;;;;;;;18.50;65.60;;;;;;5037446;28;819;-72
2023/05/25 04:52:00;;;;;;;;;;;18.50;65.60;;;;;;5039112;28;1195;-72
2023/05/25 04:54:26;;;;;;;;;;;18.50;65.60;;;;;;5025874;28;879;-72
2023/05/25 04:56:52;;;;;;;;;;;18.50;65.70;;;;;;5041224;28;843;-72
2023/05/25 04:59:17;;;;;;;;;;;18.50;65.60;;;;;;5037009;28;888;-72
2023/05/25 05:01:43;;;;;;;;;;;18.50;65.70;;;;;;5040324;28;1278;-72
2023/05/25 05:04:09;;;;;;;;;;;18.50;65.70;;;;;;5024242;28;844;-72
2023/05/25 05:06:35;;;;;;;;;;;18.50;65.70;;;;;;5036676;28;788;-72
2023/05/25 05:09:00;;;;;;;;;;;18.50;65.70;;;;;;5024104;28;1956;-72
2023/05/25 05:11:26;;;;;;;;;;;18.50;65.70;;;;;;5035415;28;1261;-72
2023/05/25 05:13:52;;;;;;;;;;;18.50;65.70;;;;;;5040757;28;904;-72
2023/05/25 05:16:17;;;;;;;;;;;18.50;65.70;;;;;;5040207;28;773;-72
2023/05/25 05:18:43;;;;;;;;;;;18.50;65.70;;;;;;5039821;28;1270;-72
2023/05/25 05:21:08;;;;;;;;;;;18.50;65.70;;;;;;5042650;28;1260;-74
2023/05/25 05:23:34;;;;;;;;;;;18.50;65.70;;;;;;5042050;28;901;-72
2023/05/25 05:25:59;;;;;;;;;;;18.50;65.70;;;;;;5037110;28;888;-73
2023/05/25 05:28:26;;;;;;;;;;;18.50;65.70;;;;;;5021794;28;1898;-73
2023/05/25 05:30:52;;;;;;;;;;;18.50;65.70;;;;;;5023354;28;1321;-73
2023/05/25 05:33:17;;;;;;;;;;;18.50;65.70;;;;;;5037404;28;1355;-73
2023/05/25 05:35:43;;;;;;;;;;;18.50;65.70;;;;;;5040146;28;1027;-73
2023/05/25 05:38:08;;;;;;;;;;;18.50;65.70;;;;;;5039093;28;886;-73
2023/05/25 05:40:34;;;;;;;;;;;18.50;65.70;;;;;;5039470;28;875;-73
2023/05/25 05:42:59;;;;;;;;;;;18.50;65.70;;;;;;5036882;28;1257;-74
2023/05/25 05:45:25;;;;;;;;;;;18.50;65.70;;;;;;5037031;28;837;-73
2023/05/25 05:47:50;;;;;;;;;;;18.50;65.80;;;;;;5038521;28;1997;-73
2023/05/25 05:50:16;;;;;;;;;;;18.50;65.70;;;;;;5037373;28;823;-73
2023/05/25 05:52:41;;;;;;;;;;;18.50;65.80;;;;;;5035129;28;1206;-73
2023/05/25 05:55:07;;;;;;;;;;;18.50;65.80;;;;;;5038404;28;986;-73
2023/05/25 05:57:32;;;;;;;;;;;18.50;65.70;;;;;;5035734;28;1546;-74
2023/05/25 05:59:58;;;;;;;;;;;18.50;65.80;;;;;;5036104;28;808;-74
2023/05/25 06:02:23;;;;;;;;;;;18.50;65.80;;;;;;5019375;28;1162;-73
2023/05/25 06:04:49;;;;;;;;;;;18.50;65.80;;;;;;5038101;28;995;-74
2023/05/25 06:07:14;;;;;;;;;;;18.50;65.80;;;;;;5038370;28;1937;-74
2023/05/25 06:09:40;;;;;;;;;;;18.50;65.80;;;;;;5023821;28;908;-74
2023/05/25 06:12:05;;;;;;;;;;;18.50;65.80;;;;;;5040063;28;1358;-74
2023/05/25 06:14:31;;;;;;;;;;;18.50;65.80;;;;;;5036000;28;898;-73
2023/05/25 06:16:57;;;;;;;;;;;18.50;65.80;;;;;;5040505;28;868;-73
2023/05/25 06:19:22;;;;;;;;;;;18.50;65.80;;;;;;5040480;28;947;-73
2023/05/25 06:21:47;;;;;;;;;;;18.50;65.80;;;;;;5040971;28;1342;-72
2023/05/25 06:24:13;;;;;;;;;;;18.50;65.80;;;;;;5040929;28;816;-71
2023/05/25 06:26:39;;;;;;;;;;;18.50;65.90;;;;;;5023813;28;844;-71
2023/05/25 06:29:04;;;;;;;;;;;18.50;68.40;;;;;;5037077;28;1902;-71
2023/05/25 06:31:30;;;;;;;;;;;18.50;67.50;;;;;;5039465;28;1280;-71
2023/05/25 06:33:55;;;;;;;;;;;18.50;68.20;;;;;;5036623;28;1387;-72
2023/05/25 06:36:21;;;;;;;;;;;18.60;67.50;;;;;;5040934;28;919;-72
2023/05/25 06:38:46;;;;;;;;;;;18.60;67.60;;;;;;5032791;28;4320;-70
2023/05/25 06:41:13;;;;;;;;;;;18.60;67.30;;;;;;5044484;28;2058;-66
2023/05/25 06:43:39;;;;;;;;;;;18.60;66.90;;;;;;5040013;28;1256;-69
2023/05/25 06:46:05;;;;;;;;;;;18.60;67.10;;;;;;5043643;28;1383;-71
2023/05/25 06:48:30;;;;;;;;;;;18.60;66.70;;;;;;5041370;28;1918;-70
2023/05/25 06:50:56;;;;;;;;;;;18.60;66.40;;;;;;5022481;28;1691;-67
2023/05/25 06:53:21;;;;;;;;;;;18.60;66.10;;;;;;5036071;28;1184;-69
2023/05/25 06:55:48;;;;;;;;;;;18.60;66.20;;;;;;5032855;28;1413;-68
2023/05/25 06:58:13;;;;;;;;;;;18.60;65.90;;;;;;5040785;28;817;-68
2023/05/25 07:00:39;;;;;;;;;;;18.60;65.70;;;;;;5041926;28;1504;-68
2023/05/25 07:03:04;;;;;;;;;;;18.60;65.50;;;;;;5025657;28;1340;-69
2023/05/25 07:05:30;;;;;;;;;;;18.60;66.30;;;;;;5044888;28;849;-69
2023/05/25 07:07:55;;;;;;;;;;;18.60;65.40;;;;;;5039776;28;1965;-69
2023/05/25 07:10:21;;;;;;;;;;;18.60;65.30;;;;;;5037896;28;947;-68
2023/05/25 07:12:46;;;;;;;;;;;18.60;64.80;;;;;;5035072;28;1276;-70
2023/05/25 07:15:14;;;;;;;;;;;18.50;64.50;;;;;;5031719;28;1270;-71
2023/05/25 07:17:39;;;;;;;;;;;18.60;64.60;;;;;;5025430;28;841;-68
2023/05/25 07:20:05;;;;;;;;;;;18.60;64.40;;;;;;5037953;28;802;-69
2023/05/25 07:22:30;;;;;;;;;;;18.60;64.60;;;;;;5039537;28;1240;-67
2023/05/25 07:24:56;;;;;;;;;;;18.60;64.70;;;;;;5022741;28;1183;-67
2023/05/25 07:27:21;;;;;;;;;;;18.50;64.40;;;;;;5040876;28;1953;-68
2023/05/25 07:29:47;;;;;;;;;;;18.60;64.30;;;;;;5042414;28;1294;-69
2023/05/25 07:32:12;;;;;;;;;;;18.60;64.30;;;;;;5038578;28;2188;-70
2023/05/25 07:34:38;;;;;;;;;;;18.60;64.30;;;;;;5023524;28;1438;-70
2023/05/25 07:37:03;;;;;;;;;;;18.60;64.20;;;;;;5038841;28;1349;-69
2023/05/25 07:39:29;;;;;;;;;;;18.60;64.10;;;;;;5037137;28;1236;-70
2023/05/25 07:41:54;;;;;;;;;;;18.60;64.20;;;;;;5037780;28;1420;-67
2023/05/25 07:44:20;;;;;;;;;;;18.50;64.20;;;;;;5039108;28;879;-70
2023/05/25 07:46:45;;;;;;;;;;;18.60;64.20;;;;;;5037134;28;914;-71
2023/05/25 07:49:14;;;;;;;;;;;18.60;64.10;;;;;;5021967;28;1971;-71
2023/05/25 07:51:46;;;;;;;;;;;18.60;64.00;;;;;;5036970;28;1258;-69
2023/05/25 07:54:11;;;;;;;;;;;18.60;63.50;;;;;;5037027;28;1023;-69
2023/05/25 07:56:37;;;;;;;;;;;18.60;63.10;;;;;;5040916;28;800;-69
2023/05/25 07:59:02;;;;;;;;;;;18.60;63.30;;;;;;5037632;28;838;-69
2023/05/25 08:01:28;;;;;;;;;;;18.60;63.30;;;;;;5038271;28;1196;-69
2023/05/25 08:03:54;;;;;;;;;;;18.60;63.20;;;;;;5037910;28;1400;-70
2023/05/25 08:06:19;;;;;;;;;;;18.60;63.20;;;;;;5037049;28;1133;-69
2023/05/25 08:08:45;;;;;;;;;;;18.60;63.30;;;;;;5042660;28;1909;-70
2023/05/25 08:11:11;;;;;;;;;;;18.60;63.30;;;;;;5039475;28;1379;-69
2023/05/25 08:13:37;;;;;;;;;;;18.60;63.30;;;;;;5024266;28;900;-69
2023/05/25 08:16:02;;;;;;;;;;;18.60;63.30;;;;;;5038092;28;824;-70
2023/05/25 08:18:28;;;;;;;;;;;18.60;62.70;;;;;;5038206;28;865;-69
2023/05/25 08:20:53;;;;;;;;;;;18.60;63.10;;;;;;5035149;28;867;-69
2023/05/25 08:23:19;;;;;;;;;;;18.60;63.20;;;;;;5038505;28;1344;-69
2023/05/25 08:25:44;;;;;;;;;;;18.60;63.00;;;;;;5021891;28;2066;-72
2023/05/25 08:28:13;;;;;;;;;;;18.60;63.00;;;;;;5038776;28;1882;-69
2023/05/25 08:30:38;;;;;;;;;;;18.60;63.10;;;;;;5037202;28;1384;-70
2023/05/25 08:33:04;;;;;;;;;;;18.50;62.90;;;;;;5037886;28;1265;-71
2023/05/25 08:35:29;;;;;;;;;;;18.50;62.90;;;;;;5036781;28;1394;-71
2023/05/25 08:37:55;;;;;;;;;;;18.60;62.80;;;;;;5017656;28;1165;-71
2023/05/25 08:40:21;;;;;;;;;;;18.50;62.50;;;;;;5037803;28;1966;-71
2023/05/25 08:42:47;;;;;;;;;;;18.60;62.50;;;;;;5039746;28;1402;-71
2023/05/25 08:45:12;;;;;;;;;;;18.50;62.40;;;;;;5039203;28;1337;-71
2023/05/25 08:47:41;;;;;;;;;;;18.50;62.20;;;;;;5009872;28;1973;-70
2023/05/25 08:50:08;;;;;;;;;;;18.60;62.40;;;;;;5039277;28;907;-71
2023/05/25 08:52:34;;;;;;;;;;;18.50;62.50;;;;;;5038893;28;2192;-70
2023/05/25 08:55:00;;;;;;;;;;;18.50;62.50;;;;;;5022594;28;1354;-71
2023/05/25 08:57:31;;;;;;;;;;;18.50;62.20;;;;;;5040251;28;882;-70
2023/05/25 09:00:03;;;;;;;;;;;18.50;62.20;;;;;;5021627;28;1259;-70
2023/05/25 09:02:57;;;;;;;;;;;18.60;62.10;;;;;;5019285;28;2017;-69
2023/05/25 09:05:23;;;;;;;;;;;18.50;61.80;;;;;;5024257;28;2347;-70
2023/05/25 09:07:50;;;;;;;;;;;18.50;61.70;;;;;;5040648;28;1910;-70
2023/05/25 09:10:15;;;;;;;;;;;18.50;61.70;;;;;;5039042;28;876;-70
2023/05/25 09:12:41;;;;;;;;;;;18.50;61.70;;;;;;5024489;28;1245;-70
2023/05/25 09:15:08;;;;;;;;;;;18.50;61.70;;;;;;5025253;28;852;-69
2023/05/25 09:17:34;;;;;;;;;;;18.50;61.60;;;;;;5034744;28;1412;-70
2023/05/25 09:19:59;;;;;;;;;;;18.50;61.10;;;;;;5036690;28;1101;-70
2023/05/25 09:22:25;;;;;;;;;;;18.60;61.20;;;;;;5036584;28;1252;-69
2023/05/25 09:24:50;;;;;;;;;;;18.60;60.80;;;;;;5037764;28;879;-70
2023/05/25 09:27:17;;;;;;;;;;;18.60;60.00;;;;;;5022502;28;2101;-70
2023/05/25 09:29:42;;;;;;;;;;;18.60;60.10;;;;;;5021628;28;931;-69
2023/05/25 09:32:08;;;;;;;;;;;18.60;60.50;;;;;;5038027;28;1694;-70
2023/05/25 09:34:33;;;;;;;;;;;18.60;60.80;;;;;;5037681;28;1014;-70
2023/05/25 09:36:59;;;;;;;;;;;18.60;61.00;;;;;;5035759;28;939;-69
2023/05/25 09:39:25;;;;;;;;;;;18.60;61.10;;;;;;5038664;28;918;-70
2023/05/25 09:41:51;;;;;;;;;;;18.60;60.90;;;;;;5041482;28;1338;-70
2023/05/25 09:44:17;;;;;;;;;;;18.60;60.90;;;;;;5023788;28;1336;-70
2023/05/25 09:46:43;;;;;;;;;;;18.60;61.00;;;;;;5028674;28;2172;-69
2023/05/25 09:49:09;;;;;;;;;;;18.60;60.90;;;;;;5022492;28;1898;-71
2023/05/25 09:51:35;;;;;;;;;;;18.60;60.70;;;;;;5021851;28;1455;-71
2023/05/25 09:54:01;;;;;;;;;;;18.60;61.00;;;;;;5016032;28;919;-71
2023/05/25 09:56:27;;;;;;;;;;;18.60;61.10;;;;;;5044262;28;899;-71
2023/05/25 09:58:52;;;;;;;;;;;18.60;60.90;;;;;;5041074;28;887;-71
2023/05/25 10:01:18;;;;;;;;;;;18.60;60.60;;;;;;5041774;28;1306;-69
2023/05/25 10:03:50;;;;;;;;;;;18.60;60.90;;;;;;5028458;28;844;-70
2023/05/25 10:06:16;;;;;;;;;;;18.60;61.00;;;;;;5043748;28;2214;-71
2023/05/25 10:08:44;;;;;;;;;;;18.60;60.90;;;;;;5041566;28;1894;-71
2023/05/25 10:11:13;;;;;;;;;;;18.60;61.00;;;;;;5028730;28;1363;-72
2023/05/25 10:13:39;;;;;;;;;;;18.60;60.80;;;;;;5024655;28;863;-70
2023/05/25 10:16:04;;;;;;;;;;;18.60;60.70;;;;;;5024605;28;837;-70
2023/05/25 10:18:30;;;;;;;;;;;18.60;61.00;;;;;;5030194;28;1074;-70
2023/05/25 10:20:59;;;;;;;;;;;18.60;60.50;;;;;;5038782;28;1007;-69
2023/05/25 10:23:25;;;;;;;;;;;18.60;60.30;;;;;;5040168;28;1945;-70
2023/05/25 10:25:51;;;;;;;;;;;18.60;59.60;;;;;;5023072;28;1470;-69
2023/05/25 10:28:32;;;;;;;;;;;18.60;59.90;;;;;;5025093;28;1997;-68
2023/05/25 10:30:57;;;;;;;;;;;18.60;60.00;;;;;;5025317;28;1636;-69
2023/05/25 10:33:23;;;;;;;;;;;18.60;59.90;;;;;;5024801;28;1347;-70
2023/05/25 10:35:49;;;;;;;;;;;18.70;60.20;;;;;;5033770;28;819;-70
2023/05/25 10:38:14;;;;;;;;;;;18.60;59.90;;;;;;5021125;28;872;-71
2023/05/25 10:40:40;;;;;;;;;;;18.60;60.00;;;;;;5040042;28;812;-69
2023/05/25 10:43:05;;;;;;;;;;;18.60;59.90;;;;;;5043833;28;1285;-69
2023/05/25 10:45:31;;;;;;;;;;;18.60;59.80;;;;;;5037915;28;903;-70
2023/05/25 10:47:56;;;;;;;;;;;18.60;59.80;;;;;;5043189;28;1967;-70
2023/05/25 10:50:23;;;;;;;;;;;18.60;59.10;;;;;;5038504;28;914;-70
2023/05/25 10:53:07;;;;;;;;;;;18.70;59.00;;;;;;5040766;28;1432;-71
2023/05/25 10:55:45;;;;;;;;;;;18.70;58.80;;;;;;5040835;28;995;-70
2023/05/25 10:58:11;;;;;;;;;;;18.70;59.10;;;;;;5041036;28;850;-70
2023/05/25 11:00:37;;;;;;;;;;;18.70;59.20;;;;;;5041737;28;891;-70
2023/05/25 11:03:02;;;;;;;;;;;18.70;59.20;;;;;;5026448;28;1367;-69
2023/05/25 11:05:32;;;;;;;;;;;18.70;59.20;;;;;;5024124;28;819;-69
2023/05/25 11:07:57;;;;;;;;;;;18.70;59.00;;;;;;5028027;28;1906;-71
2023/05/25 11:10:42;;;;;;;;;;;18.70;59.30;;;;;;5023903;28;872;-69
2023/05/25 11:13:26;;;;;;;;;;;18.70;59.40;;;;;;5040078;28;1268;-70
2023/05/25 11:16:11;;;;;;;;;;;18.70;59.50;;;;;;5040524;28;1334;-70
2023/05/25 11:18:36;;;;;;;;;;;18.70;59.30;;;;;;5039104;28;1135;-69
2023/05/25 11:21:15;;;;;;;;;;;18.70;59.30;;;;;;5039433;28;927;-69
2023/05/25 11:23:54;;;;;;;;;;;18.70;59.30;;;;;;5038655;28;875;-71
2023/05/25 11:26:20;;;;;;;;;;;18.70;59.30;;;;;;5025766;28;884;-69
2023/05/25 11:28:46;;;;;;;;;;;18.70;59.00;;;;;;5039837;28;1910;-69
2023/05/25 11:31:12;;;;;;;;;;;18.70;58.80;;;;;;5037322;28;1406;-71
2023/05/25 11:33:37;;;;;;;;;;;18.70;58.40;;;;;;5038965;28;1464;-71
2023/05/25 11:36:03;;;;;;;;;;;18.70;58.20;;;;;;5015340;28;915;-71
2023/05/25 11:38:30;;;;;;;;;;;18.70;58.00;;;;;;5027245;28;895;-71
2023/05/25 11:40:55;;;;;;;;;;;18.60;58.70;;;;;;5037626;28;925;-71
2023/05/25 11:43:22;;;;;;;;;;;18.60;58.10;;;;;;5036778;28;1346;-70
2023/05/25 11:45:54;;;;;;;;;;;18.60;58.10;;;;;;5024971;28;815;-70
2023/05/25 11:48:19;;;;;;;;;;;18.60;58.30;;;;;;5043122;28;1910;-69
2023/05/25 11:50:45;;;;;;;;;;;18.60;58.60;;;;;;5040020;28;869;-70
2023/05/25 11:53:11;;;;;;;;;;;18.60;58.50;;;;;;5030919;28;1365;-71
2023/05/25 11:55:39;;;;;;;;;;;18.70;58.60;;;;;;5037466;28;805;-69
2023/05/25 11:58:05;;;;;;;;;;;18.60;58.70;;;;;;5024217;28;1320;-71
2023/05/25 12:00:31;;;;;;;;;;;18.70;58.70;;;;;;5023507;28;868;-70
2023/05/25 12:02:56;;;;;;;;;;;18.60;58.50;;;;;;5036407;28;1245;-70
2023/05/25 12:05:23;;;;;;;;;;;18.60;58.60;;;;;;5019330;28;915;-71
2023/05/25 12:07:48;;;;;;;;;;;18.60;58.30;;;;;;5040495;28;1918;-71
2023/05/25 12:10:17;;;;;;;;;;;18.60;58.50;;;;;;5029880;28;2147;-71
2023/05/25 12:12:43;;;;;;;;;;;18.60;58.60;;;;;;5023931;28;1611;-71
2023/05/25 12:15:09;;;;;;;;;;;18.60;58.60;;;;;;5023882;28;1265;-71
2023/05/25 12:17:34;;;;;;;;;;;18.70;58.40;;;;;;5038410;28;1536;-71
2023/05/25 12:20:00;;;;;;;;;;;18.70;58.80;;;;;;5014053;28;1250;-69
2023/05/25 12:22:25;;;;;;;;;;;18.70;58.90;;;;;;5024793;28;1304;-71
2023/05/25 12:24:51;;;;;;;;;;;18.70;59.00;;;;;;5024424;28;847;-70
2023/05/25 12:27:17;;;;;;;;;;;18.60;59.10;;;;;;5023262;28;1902;-69
2023/05/25 12:29:46;;;;;;;;;;;18.70;59.10;;;;;;5024848;28;1133;-70
2023/05/25 12:32:11;;;;;;;;;;;18.70;58.80;;;;;;5023875;28;1298;-71
2023/05/25 12:34:37;;;;;;;;;;;18.70;58.90;;;;;;5025414;28;1365;-71
2023/05/25 12:37:02;;;;;;;;;;;18.70;58.90;;;;;;5039351;28;1030;-71
2023/05/25 12:39:28;;;;;;;;;;;18.70;59.00;;;;;;5023388;28;906;-71
2023/05/25 12:41:53;;;;;;;;;;;18.70;59.10;;;;;;5038176;28;1279;-71
2023/05/25 12:44:20;;;;;;;;;;;18.70;59.10;;;;;;5021632;28;964;-71
2023/05/25 12:46:46;;;;;;;;;;;18.70;59.20;;;;;;5034681;28;918;-71
2023/05/25 12:49:24;;;;;;;;;;;18.70;59.20;;;;;;5026362;28;1898;-70
2023/05/25 12:51:50;;;;;;;;;;;18.70;59.20;;;;;;5037204;28;1294;-71
2023/05/25 12:54:16;;;;;;;;;;;18.70;59.40;;;;;;5020772;28;846;-70
2023/05/25 12:56:57;;;;;;;;;;;18.70;59.50;;;;;;5036073;28;875;-71
2023/05/25 12:59:23;;;;;;;;;;;18.70;59.50;;;;;;5037379;28;940;-72
2023/05/25 13:01:48;;;;;;;;;;;18.70;59.40;;;;;;5038425;28;2088;-71
2023/05/25 13:04:14;;;;;;;;;;;18.70;59.40;;;;;;5025359;28;1451;-69
2023/05/25 13:06:39;;;;;;;;;;;18.70;59.40;;;;;;5042204;28;1565;-73
2023/05/25 13:09:05;;;;;;;;;;;18.70;59.70;;;;;;5040219;28;1914;-72
2023/05/25 13:11:30;;;;;;;;;;;18.70;59.60;;;;;;5036034;28;1667;-68
2023/05/25 13:13:55;;;;;;;;;;;18.70;59.80;;;;;;5024338;28;1234;-69
2023/05/25 13:16:21;;;;;;;;;;;18.70;59.80;;;;;;5038750;28;804;-68
2023/05/25 13:18:47;;;;;;;;;;;18.70;59.80;;;;;;5034377;28;828;-71
2023/05/25 13:21:12;;;;;;;;;;;18.70;59.50;;;;;;5039029;28;1385;-69
2023/05/25 13:23:38;;;;;;;;;;;18.70;59.50;;;;;;5025294;28;4689;-70
2023/05/25 13:26:03;;;;;;;;;;;18.70;59.30;;;;;;5017047;28;4636;-70
2023/05/25 13:28:29;;;;;;;;;;;18.70;59.00;;;;;;5020299;28;4977;-67
2023/05/25 13:30:54;;;;;;;;;;;18.70;59.10;;;;;;5039320;28;4489;-70
2023/05/25 13:33:20;;;;;;;;;;;18.70;59.30;;;;;;5022102;28;4667;-70
2023/05/25 13:35:57;;;;;;;;;;;18.70;59.40;;;;;;5010622;28;4603;-70
2023/05/25 13:38:22;;;;;;;;;;;18.70;59.30;;;;;;4997793;28;4243;-71
2023/05/25 13:40:48;;;;;;;;;;;18.80;59.50;;;;;;5034367;28;4738;-70
2023/05/25 13:43:14;;;;;;;;;;;18.80;59.70;;;;;;5035823;28;4536;-69
2023/05/25 13:45:39;;;;;;;;;;;18.80;59.60;;;;;;5042506;28;3909;-70
2023/05/25 13:48:04;;;;;;;;;;;18.80;59.50;;;;;;5033377;28;4261;-70
2023/05/25 13:50:30;;;;;;;;;;;18.80;59.60;;;;;;5039723;28;880;-69
2023/05/25 13:52:55;;;;;;;;;;;18.80;59.60;;;;;;5041017;28;1361;-70
2023/05/25 13:55:22;;;;;;;;;;;18.80;59.60;;;;;;5042884;28;1007;-70
2023/05/25 13:57:47;;;;;;;;;;;18.90;59.60;;;;;;5044152;28;927;-70
2023/05/25 14:00:13;;;;;;;;;;;18.80;59.60;;;;;;5044335;28;842;-69
2023/05/25 14:02:38;;;;;;;;;;;18.90;59.70;;;;;;5023401;28;1268;-69
2023/05/25 14:05:04;;;;;;;;;;;18.90;59.80;;;;;;5040463;28;1452;-69
2023/05/25 14:07:30;;;;;;;;;;;18.80;59.90;;;;;;5042824;28;1891;-69
2023/05/25 14:09:55;;;;;;;;;;;18.90;59.90;;;;;;5025797;28;892;-70
2023/05/25 14:12:21;;;;;;;;;;;18.90;60.00;;;;;;5021197;28;1279;-70
2023/05/25 14:14:46;;;;;;;;;;;18.90;60.10;;;;;;5041792;28;792;-68
2023/05/25 14:17:11;;;;;;;;;;;18.90;60.00;;;;;;5041191;28;924;-69
2023/05/25 14:19:37;;;;;;;;;;;18.80;59.90;;;;;;5041224;28;1010;-69
2023/05/25 14:22:02;;;;;;;;;;;18.80;60.00;;;;;;5041856;28;1254;-69
2023/05/25 14:24:28;;;;;;;;;;;18.90;60.00;;;;;;5044171;28;850;-68
2023/05/25 14:26:53;;;;;;;;;;;18.90;60.20;;;;;;5022257;28;2002;-69
2023/05/25 14:29:19;;;;;;;;;;;18.90;60.40;;;;;;5037420;28;1898;-68